createdAt,value
2023-01-12T00:01:07.738Z,99016.34
2023-01-12T00:03:34.327Z,99007.22
2023-01-12T00:06:12.341Z,99010.19
2023-01-12T00:08:38.779Z,99010.56
2023-01-12T00:11:05.303Z,99014.38
2023-01-12T00:13:32.958Z,99005.53
2023-01-12T00:16:19.328Z,99010.19
2023-01-12T00:18:46.601Z,99008.59
2023-01-12T00:21:14.218Z,99007.75
2023-01-12T00:23:42.427Z,99014.91
2023-01-12T00:26:10.123Z,99020.94
2023-01-12T00:28:37.400Z,99014.31
2023-01-12T00:31:11.001Z,99018.41
2023-01-12T00:33:39.039Z,99007.31
2023-01-12T00:36:08.367Z,99023.47
2023-01-12T00:38:36.510Z,99024.88
2023-01-12T00:41:10.970Z,99015.22
2023-01-12T00:43:56.180Z,99019.28
2023-01-12T00:46:32.840Z,99018.03
2023-01-12T00:48:59.578Z,99015.97
2023-01-12T00:51:26.043Z,99011.31
2023-01-12T00:53:52.590Z,99013.56
2023-01-12T00:56:19.032Z,99016.53
2023-01-12T01:04:13.836Z,99017.06
2023-01-12T01:06:40.675Z,99024.94
2023-01-12T01:09:07.461Z,99016.78
2023-01-12T01:11:35.205Z,99013.72
2023-01-12T01:14:02.454Z,99015.97
2023-01-12T01:16:29.671Z,99013.16
2023-01-12T01:18:57.253Z,99018.38
2023-01-12T01:21:23.884Z,99020.63
2023-01-12T01:23:50.664Z,98996.28
2023-01-12T01:26:20.019Z,99016.25
2023-01-12T01:28:47.101Z,99014.00
2023-01-12T01:31:20.210Z,99011.63
2023-01-12T01:33:47.689Z,99007.25
2023-01-12T01:36:14.817Z,99015.13
2023-01-12T01:38:44.711Z,99009.66
2023-01-12T01:41:22.149Z,99007.25
2023-01-12T01:43:53.681Z,99017.94
2023-01-12T01:52:31.278Z,99001.66
2023-01-12T01:55:22.653Z,99008.97
2023-01-12T01:57:54.811Z,99000.81
2023-01-12T02:00:22.454Z,98996.81
2023-01-12T02:02:49.409Z,98997.25
2023-01-12T02:05:20.097Z,98988.97
2023-01-12T02:07:49.402Z,98995.28
2023-01-12T02:10:16.404Z,98993.88
2023-01-12T02:13:01.910Z,98991.47
2023-01-12T02:15:49.646Z,98972.38
2023-01-12T02:18:39.911Z,98986.44
2023-01-12T02:21:30.945Z,98985.88
2023-01-12T02:23:57.295Z,98976.75
2023-01-12T02:27:03.723Z,98955.94
2023-01-12T02:29:30.145Z,98953.28
2023-01-12T02:32:11.785Z,98950.59
2023-01-12T02:35:00.223Z,98949.34
2023-01-12T02:37:37.204Z,98949.06
2023-01-12T02:40:03.596Z,98953.53
2023-01-12T02:42:44.886Z,98945.69
2023-01-12T02:45:30.458Z,98945.53
2023-01-12T02:48:25.098Z,98938.09
2023-01-12T02:50:59.609Z,98942.28
2023-01-12T02:53:45.346Z,98931.06
2023-01-12T02:56:16.827Z,98938.09
2023-01-12T02:58:49.736Z,98941.63
2023-01-12T03:01:19.069Z,98935.00
2023-01-12T03:03:48.049Z,98924.03
2023-01-12T03:06:17.411Z,98923.19
2023-01-12T03:08:46.456Z,98922.31
2023-01-12T03:11:19.934Z,98926.56
2023-01-12T03:13:54.162Z,98923.63
2023-01-12T03:16:32.421Z,98922.19
2023-01-12T03:19:02.015Z,98918.94
2023-01-12T03:22:03.614Z,98925.00
2023-01-12T03:24:35.677Z,98918.13
2023-01-12T03:27:06.939Z,98900.97
2023-01-12T03:29:43.283Z,98916.31
2023-01-12T03:32:09.895Z,98897.88
2023-01-12T03:34:37.551Z,98897.31
2023-01-12T03:37:22.815Z,98903.34
2023-01-12T03:40:01.728Z,98888.59
2023-01-12T03:42:35.254Z,98894.78
2023-01-12T03:45:28.019Z,98893.63
2023-01-12T03:48:10.032Z,98887.31
2023-01-12T03:50:45.254Z,98882.25
2023-01-12T03:53:15.231Z,98876.91
2023-01-12T03:55:45.001Z,98869.72
2023-01-12T03:58:11.583Z,98869.00
2023-01-12T04:00:38.786Z,98860.56
2023-01-12T04:03:11.445Z,98865.94
2023-01-12T04:05:39.355Z,98868.31
2023-01-12T04:08:06.204Z,98872.53
2023-01-12T04:10:32.823Z,98856.50
2023-01-12T04:12:59.265Z,98850.31
2023-01-12T04:15:26.094Z,98847.63
2023-01-12T04:17:52.675Z,98854.69
2023-01-12T04:20:20.065Z,98850.03
2023-01-12T04:22:46.923Z,98847.63
2023-01-12T04:25:16.338Z,98841.59
2023-01-12T04:27:51.505Z,98844.53
2023-01-12T04:30:22.727Z,98840.47
2023-01-12T04:32:49.527Z,98833.97
2023-01-12T04:35:17.005Z,98828.34
2023-01-12T04:37:44.865Z,98827.09
2023-01-12T04:40:13.873Z,98823.72
2023-01-12T04:43:01.578Z,98820.06
2023-01-12T04:45:32.371Z,98810.06
2023-01-12T04:48:07.686Z,98808.81
2023-01-12T04:50:34.364Z,98811.63
2023-01-12T04:53:05.629Z,98810.06
2023-01-12T04:55:33.654Z,98803.28
2023-01-12T04:58:00.216Z,98802.03
2023-01-12T05:00:26.876Z,98798.25
2023-01-12T05:02:59.320Z,98792.75
2023-01-12T05:05:26.830Z,98778.81
2023-01-12T05:08:11.736Z,98783.75
2023-01-12T05:10:38.115Z,98778.69
2023-01-12T05:13:04.788Z,98788.41
2023-01-12T05:15:31.366Z,98789.50
2023-01-12T05:17:57.771Z,98781.34
2023-01-12T05:20:24.252Z,98770.78
2023-01-12T05:22:52.488Z,98774.19
2023-01-12T05:25:19.043Z,98763.63
2023-01-12T05:27:45.454Z,98770.38
2023-01-12T05:30:12.484Z,98772.63
2023-01-12T05:32:40.291Z,98776.31
2023-01-12T05:35:08.176Z,98762.53
2023-01-12T05:37:34.916Z,98759.72
2023-01-12T05:40:01.433Z,98750.13
2023-01-12T05:42:47.662Z,98753.78
2023-01-12T05:45:14.066Z,98754.09
2023-01-12T05:47:40.554Z,98741.84
2023-01-12T05:50:07.454Z,98728.38
2023-01-12T05:52:33.947Z,98716.13
2023-01-12T05:55:00.413Z,98707.97
2023-01-12T05:57:30.008Z,98723.72
2023-01-12T05:59:56.888Z,98716.81
2023-01-12T06:02:23.458Z,98704.63
2023-01-12T06:04:50.126Z,98706.19
2023-01-12T06:07:16.780Z,98691.41
2023-01-12T06:09:43.412Z,98693.38
2023-01-12T06:12:31.586Z,98700.28
2023-01-12T06:14:58.044Z,98687.75
2023-01-12T06:17:24.450Z,98690.69
2023-01-12T06:19:51.068Z,98691.84
2023-01-12T06:22:19.228Z,98686.34
2023-01-12T06:24:48.916Z,98688.75
2023-01-12T06:27:16.483Z,98686.50
2023-01-12T06:29:43.326Z,98681.72
2023-01-12T06:32:09.893Z,98693.66
2023-01-12T06:34:36.864Z,98689.31
2023-01-12T06:37:04.547Z,98682.84
2023-01-12T06:39:31.443Z,98681.28
2023-01-12T06:42:16.731Z,98681.59
2023-01-12T06:44:43.155Z,98679.75
2023-01-12T06:47:09.940Z,98680.72
2023-01-12T06:49:36.391Z,98686.06
2023-01-12T06:52:02.916Z,98697.19
2023-01-12T06:54:30.800Z,98679.91
2023-01-12T06:56:57.402Z,98690.88
2023-01-12T06:59:23.766Z,98691.97
2023-01-12T07:01:50.623Z,98680.72
2023-01-12T07:04:17.169Z,98674.56
2023-01-12T07:06:43.713Z,98684.97
2023-01-12T07:09:10.172Z,98686.06
2023-01-12T07:11:36.765Z,98679.63
2023-01-12T07:14:03.197Z,98683.41
2023-01-12T07:16:29.596Z,98672.03
2023-01-12T07:18:56.386Z,98670.91
2023-01-12T07:21:22.769Z,98674.56
2023-01-12T07:23:49.257Z,98684.28
2023-01-12T07:26:15.643Z,98661.47
2023-01-12T07:28:42.749Z,98671.88
2023-01-12T07:31:09.286Z,98667.38
2023-01-12T07:33:37.755Z,98668.53
2023-01-12T07:36:04.564Z,98674.69
2023-01-12T07:38:31.637Z,98679.63
2023-01-12T07:41:00.116Z,98667.38
2023-01-12T07:43:26.836Z,98674.97
2023-01-12T07:45:56.384Z,98677.66
2023-01-12T07:48:23.406Z,98669.78
2023-01-12T07:50:49.962Z,98659.78
2023-01-12T07:53:16.597Z,98684.09
2023-01-12T07:55:45.974Z,98666.38
2023-01-12T07:58:12.543Z,98664.72
2023-01-12T08:00:39.133Z,98660.06
2023-01-12T08:03:10.983Z,98658.38
2023-01-12T08:05:38.820Z,98648.41
2023-01-12T08:08:06.356Z,98652.47
2023-01-12T08:10:32.903Z,98649.25
2023-01-12T08:12:59.411Z,98646.72
2023-01-12T08:15:28.496Z,98654.59
2023-01-12T08:18:03.890Z,98646.44
2023-01-12T08:20:34.965Z,98642.19
2023-01-12T08:23:16.353Z,98646.13
2023-01-12T08:25:48.696Z,98648.22
2023-01-12T08:28:24.336Z,98657.91
2023-01-12T08:30:51.990Z,98644.69
2023-01-12T08:33:19.516Z,98657.75
2023-01-12T08:35:46.894Z,98658.91
2023-01-12T08:38:14.523Z,98661.84
2023-01-12T08:40:59.735Z,98650.59
2023-01-12T08:43:44.495Z,98658.72
2023-01-12T08:46:11.103Z,98663.38
2023-01-12T08:48:38.128Z,98656.47
2023-01-12T08:51:06.324Z,98648.44
2023-01-12T08:53:32.892Z,98652.22
2023-01-12T08:55:59.636Z,98664.47
2023-01-12T08:58:26.079Z,98662.63
2023-01-12T09:00:52.579Z,98656.16
2023-01-12T09:03:19.049Z,98657.00
2023-01-12T09:05:45.972Z,98653.75
2023-01-12T09:08:12.357Z,98644.03
2023-01-12T09:10:38.867Z,98652.72
2023-01-12T09:13:05.420Z,98654.44
2023-01-12T09:15:32.111Z,98655.53
2023-01-12T09:17:58.521Z,98655.94
2023-01-12T09:20:25.072Z,98654.16
2023-01-12T09:22:51.452Z,98663.53
2023-01-12T09:25:18.031Z,98674.94
2023-01-12T09:27:44.443Z,98670.13
2023-01-12T09:30:11.590Z,98666.88
2023-01-12T09:32:37.995Z,98666.63
2023-01-12T09:35:04.961Z,98677.31
2023-01-12T09:37:31.440Z,98676.31
2023-01-12T09:40:00.385Z,98676.31
2023-01-12T09:42:45.378Z,98675.19
2023-01-12T09:45:38.823Z,98682.50
2023-01-12T09:48:08.406Z,98679.53
2023-01-12T09:50:39.406Z,98684.03
2023-01-12T09:53:38.498Z,98696.59
2023-01-12T09:56:07.959Z,98697.00
2023-01-12T09:58:37.378Z,98700.22
2023-01-12T10:01:20.518Z,98687.66
2023-01-12T10:03:55.416Z,98698.38
2023-01-12T10:06:22.113Z,98694.09
2023-01-12T10:08:57.486Z,98699.44
2023-01-12T10:11:47.565Z,98682.72
2023-01-12T10:14:32.289Z,98689.16
2023-01-12T10:17:18.739Z,98690.84
2023-01-12T10:19:51.355Z,98693.22
2023-01-12T10:22:37.785Z,98700.53
2023-01-12T10:25:23.767Z,98687.00
2023-01-12T10:27:53.508Z,98682.53
2023-01-12T10:30:39.174Z,98686.47
2023-01-12T10:33:21.553Z,98687.16
2023-01-12T10:36:05.894Z,98702.63
2023-01-12T10:38:39.523Z,98688.28
2023-01-12T10:41:17.658Z,98680.25
2023-01-12T10:43:46.752Z,98687.41
2023-01-12T10:46:21.452Z,98687.25
2023-01-12T10:48:56.064Z,98679.63
2023-01-12T10:51:28.792Z,98674.81
2023-01-12T10:54:17.697Z,98678.34
2023-01-12T10:56:55.525Z,98679.88
2023-01-12T10:59:26.197Z,98685.63
2023-01-12T11:02:12.133Z,98680.94
2023-01-12T11:04:51.456Z,98686.16
2023-01-12T11:07:28.717Z,98678.50
2023-01-12T11:10:00.150Z,98670.19
2023-01-12T11:12:40.021Z,98671.16
2023-01-12T11:15:09.475Z,98677.06
2023-01-12T11:17:49.534Z,98680.28
2023-01-12T11:20:23.505Z,98672.56
2023-01-12T11:22:54.864Z,98660.16
2023-01-12T11:25:24.464Z,98663.22
2023-01-12T11:28:06.465Z,98652.91
2023-01-12T11:30:44.300Z,98662.47
2023-01-12T11:33:19.834Z,98664.81
2023-01-12T11:36:04.464Z,98657.66
2023-01-12T11:38:41.013Z,98662.28
2023-01-12T11:41:19.057Z,98661.69
2023-01-12T11:44:03.302Z,98648.69
2023-01-12T11:46:38.975Z,98656.03
2023-01-12T11:49:21.309Z,98646.69
2023-01-12T11:51:51.068Z,98656.41
2023-01-12T11:54:19.110Z,98643.56
2023-01-12T11:56:48.156Z,98639.03
2023-01-12T11:59:45.874Z,98643.09
2023-01-12T12:02:39.151Z,98636.56
2023-01-12T12:05:20.902Z,98636.72
2023-01-12T12:08:18.276Z,98635.75
2023-01-12T12:10:59.929Z,98641.09
2023-01-12T12:13:38.395Z,98633.59
2023-01-12T12:16:17.838Z,98627.41
2023-01-12T12:18:49.956Z,98639.41
2023-01-12T12:21:25.594Z,98639.56
2023-01-12T12:24:29.545Z,98642.38
2023-01-12T12:27:14.913Z,98639.03
2023-01-12T12:29:50.348Z,98644.53
2023-01-12T12:32:48.897Z,98635.97
2023-01-12T12:35:41.412Z,98641.31
2023-01-12T12:38:20.725Z,98646.53
2023-01-12T12:41:24.027Z,98650.03
2023-01-12T12:44:35.479Z,98631.13
2023-01-12T12:47:42.055Z,98635.66
2023-01-12T12:50:42.914Z,98632.16
2023-01-12T12:53:21.491Z,98642.72
2023-01-12T12:55:51.213Z,98645.69
2023-01-12T12:58:20.661Z,98646.53
2023-01-12T13:00:50.687Z,98652.72
2023-01-12T13:03:41.970Z,98640.34
2023-01-12T13:06:15.157Z,98649.38
2023-01-12T13:08:43.217Z,98635.28
2023-01-12T13:11:10.455Z,98646.97
2023-01-12T13:13:38.611Z,98643.31
2023-01-12T13:16:20.303Z,98650.53
2023-01-12T13:18:52.853Z,98628.72
2023-01-12T13:21:28.653Z,98636.75
2023-01-12T13:24:10.295Z,98630.72
2023-01-12T13:26:39.284Z,98639.88
2023-01-12T13:29:24.348Z,98638.75
2023-01-12T13:31:52.387Z,98640.03
2023-01-12T13:34:37.211Z,98637.50
2023-01-12T13:37:23.599Z,98640.66
2023-01-12T13:40:03.495Z,98632.16
2023-01-12T13:42:49.562Z,98625.81
2023-01-12T13:45:21.023Z,98634.53
2023-01-12T13:47:50.101Z,98635.06
2023-01-12T13:50:19.742Z,98640.56
2023-01-12T13:52:59.893Z,98637.88
2023-01-12T13:55:29.797Z,98641.25
2023-01-12T13:58:16.841Z,98640.50
2023-01-12T14:00:53.190Z,98639.19
2023-01-12T14:03:36.233Z,98631.47
2023-01-12T14:06:10.100Z,98632.31
2023-01-12T14:08:57.428Z,98612.72
2023-01-12T14:11:33.141Z,98620.13
2023-01-12T14:14:46.778Z,98621.28
2023-01-12T14:17:48.119Z,98628.00
2023-01-12T14:20:18.937Z,98629.19
2023-01-12T14:22:46.008Z,98616.84
2023-01-12T14:25:25.438Z,98614.31
2023-01-12T14:27:54.565Z,98618.34
2023-01-12T14:30:23.919Z,98622.34
2023-01-12T14:32:51.239Z,98620.81
2023-01-12T14:35:21.024Z,98621.34
2023-01-12T14:37:54.286Z,98609.78
2023-01-12T14:40:29.035Z,98615.97
2023-01-12T14:43:16.544Z,98602.38
2023-01-12T14:46:25.076Z,98615.94
2023-01-12T14:49:04.134Z,98617.28
2023-01-12T14:51:35.978Z,98609.41
2023-01-12T14:54:06.001Z,98609.09
2023-01-12T14:56:41.658Z,98607.25
2023-01-12T14:59:19.212Z,98607.63
2023-01-12T15:01:46.260Z,98605.63
2023-01-12T15:04:25.003Z,98597.94
2023-01-12T15:07:04.317Z,98594.53
2023-01-12T15:09:33.669Z,98603.97
2023-01-12T15:12:29.328Z,98604.44
2023-01-12T15:15:15.156Z,98603.97
2023-01-12T15:18:00.381Z,98595.47
2023-01-12T15:20:53.235Z,98595.94
2023-01-12T15:23:53.709Z,98590.63
2023-01-12T15:26:21.309Z,98587.63
2023-01-12T15:28:48.693Z,98590.63
2023-01-12T15:31:21.832Z,98570.66
2023-01-12T15:33:48.516Z,98570.56
2023-01-12T15:36:15.011Z,98564.72
2023-01-12T15:38:41.606Z,98570.75
2023-01-12T15:41:41.201Z,98575.44
2023-01-12T15:44:15.759Z,98578.44
2023-01-12T15:46:43.091Z,98574.59
2023-01-12T15:49:11.350Z,98578.28
2023-01-12T15:51:37.986Z,98574.94
2023-01-12T15:54:05.547Z,98573.44
2023-01-12T15:56:31.912Z,98581.31
2023-01-12T15:58:58.556Z,98563.09
2023-01-12T16:01:30.119Z,98575.09
2023-01-12T16:04:18.332Z,98578.81
2023-01-12T16:06:43.115Z,98571.97
2023-01-12T16:09:09.653Z,98570.81
2023-01-12T16:11:36.161Z,98560.03
2023-01-12T16:14:03.044Z,98563.56
2023-01-12T16:16:29.919Z,98555.50
2023-01-12T16:18:58.527Z,98558.72
2023-01-12T16:21:27.078Z,98545.63
2023-01-12T16:23:57.496Z,98549.53
2023-01-12T16:26:26.444Z,98544.16
2023-01-12T16:28:52.916Z,98551.84
2023-01-12T16:31:19.869Z,98551.53
2023-01-12T16:33:46.371Z,98547.53
2023-01-12T16:36:14.499Z,98565.94
2023-01-12T16:38:41.278Z,98571.28
2023-01-12T16:41:14.014Z,98572.63
2023-01-12T16:43:40.793Z,98571.75
2023-01-12T16:46:07.626Z,98574.44
2023-01-12T16:48:34.745Z,98571.91
2023-01-12T16:51:01.594Z,98557.53
2023-01-12T16:53:28.074Z,98561.25
2023-01-12T16:55:54.633Z,98558.03
2023-01-12T16:58:21.197Z,98569.94
2023-01-12T17:00:47.999Z,98567.94
2023-01-12T17:03:14.720Z,98569.22
2023-01-12T17:05:42.340Z,98556.69
2023-01-12T17:08:09.401Z,98558.03
2023-01-12T17:10:36.602Z,98557.88
2023-01-12T17:13:03.355Z,98561.25
2023-01-12T17:15:30.521Z,98557.53
2023-01-12T17:17:57.345Z,98556.34
2023-01-12T17:20:24.061Z,98556.03
2023-01-12T17:22:50.680Z,98553.84
2023-01-12T17:25:17.420Z,98541.13
2023-01-12T17:27:44.063Z,98538.13
2023-01-12T17:30:11.363Z,98535.44
2023-01-12T17:32:38.162Z,98538.59
2023-01-12T17:35:07.799Z,98520.88
2023-01-12T17:37:35.518Z,98539.31
2023-01-12T17:40:02.517Z,98529.59
2023-01-12T17:42:47.600Z,98535.63
2023-01-12T17:45:14.096Z,98533.28
2023-01-12T17:47:40.716Z,98536.13
2023-01-12T17:50:07.767Z,98531.44
2023-01-12T17:52:34.527Z,98542.84
2023-01-12T17:55:01.268Z,98540.81
2023-01-12T17:57:27.734Z,98535.09
2023-01-12T17:59:54.178Z,98533.81
2023-01-12T18:02:20.952Z,98538.00
2023-01-12T18:04:47.559Z,98544.38
2023-01-12T18:07:14.289Z,98537.16
2023-01-12T18:09:41.844Z,98535.09
2023-01-12T18:12:10.663Z,98525.75
2023-01-12T18:14:37.472Z,98529.75
2023-01-12T18:17:03.954Z,98524.06
2023-01-12T18:19:30.654Z,98540.16
2023-01-12T18:21:57.127Z,98527.06
2023-01-12T18:24:23.737Z,98526.59
2023-01-12T18:26:50.878Z,98537.31
2023-01-12T18:29:17.505Z,98541.53
2023-01-12T18:31:47.174Z,98533.50
2023-01-12T18:34:16.337Z,98528.59
2023-01-12T18:36:43.343Z,98539.53
2023-01-12T18:39:16.060Z,98534.78
2023-01-12T18:42:01.141Z,98536.28
2023-01-12T18:44:27.642Z,98533.13
2023-01-12T18:47:15.703Z,98528.59
2023-01-12T18:49:47.650Z,98532.13
2023-01-12T18:52:33.269Z,98531.97
2023-01-12T18:54:59.843Z,98522.94
2023-01-12T18:57:28.921Z,98529.13
2023-01-12T19:00:06.129Z,98519.38
2023-01-12T19:02:32.531Z,98516.72
2023-01-12T19:05:16.246Z,98514.84
2023-01-12T19:07:52.735Z,98514.00
2023-01-12T19:10:19.164Z,98513.34
2023-01-12T19:12:45.963Z,98528.91
2023-01-12T19:15:31.926Z,98523.91
2023-01-12T19:17:58.499Z,98516.72
2023-01-12T19:20:29.056Z,98508.00
2023-01-12T19:23:14.779Z,98503.00
2023-01-12T19:25:59.664Z,98508.81
2023-01-12T19:28:40.523Z,98514.19
2023-01-12T19:31:11.306Z,98503.47
2023-01-12T19:33:38.833Z,98510.19
2023-01-12T19:36:07.920Z,98497.78
2023-01-12T19:38:35.929Z,98492.75
2023-01-12T19:41:30.080Z,98479.84
2023-01-12T19:43:56.619Z,98489.22
2023-01-12T19:46:23.129Z,98493.59
2023-01-12T19:48:49.645Z,98494.94
2023-01-12T19:51:16.138Z,98487.75
2023-01-12T19:53:42.707Z,98481.91
2023-01-12T19:56:11.061Z,98499.00
2023-01-12T19:58:38.338Z,98486.06
2023-01-12T20:01:05.005Z,98480.34
2023-01-12T20:03:31.755Z,98487.94
2023-01-12T20:05:58.380Z,98485.25
2023-01-12T20:08:25.466Z,98485.59
2023-01-12T20:10:57.557Z,98476.84
2023-01-12T20:13:24.756Z,98492.63
2023-01-12T20:15:51.251Z,98478.53
2023-01-12T20:18:18.777Z,98483.06
2023-01-12T20:20:45.980Z,98491.28
2023-01-12T20:23:14.875Z,98491.75
2023-01-12T20:25:42.554Z,98491.03
2023-01-12T20:28:12.210Z,98485.00
2023-01-12T20:30:40.812Z,98482.47
2023-01-12T20:33:07.571Z,98473.78
2023-01-12T20:35:35.034Z,98475.78
2023-01-12T20:38:04.049Z,98466.56
2023-01-12T20:40:30.567Z,98466.72
2023-01-12T20:42:57.199Z,98452.66
2023-01-12T20:45:24.056Z,98456.50
2023-01-12T20:47:50.606Z,98461.66
2023-01-12T20:50:18.696Z,98451.47
2023-01-12T20:52:47.926Z,98459.59
2023-01-12T20:55:15.185Z,98456.59
2023-01-12T20:57:42.804Z,98447.56
2023-01-12T21:00:10.822Z,98453.94
2023-01-12T21:02:37.772Z,98444.03
2023-01-12T21:05:04.910Z,98448.88
2023-01-12T21:07:31.490Z,98443.22
2023-01-12T21:09:57.912Z,98446.72
2023-01-12T21:12:27.258Z,98446.22
2023-01-12T21:14:54.217Z,98448.38
2023-01-12T21:17:21.499Z,98435.34
2023-01-12T21:19:47.943Z,98429.81
2023-01-12T21:22:14.467Z,98441.16
2023-01-12T21:24:40.917Z,98440.06
2023-01-12T21:27:07.310Z,98442.19
2023-01-12T21:29:34.166Z,98438.38
2023-01-12T21:32:00.746Z,98440.75
2023-01-12T21:34:27.606Z,98441.88
2023-01-12T21:36:54.099Z,98435.53
2023-01-12T21:39:20.635Z,98435.84
2023-01-12T21:42:05.524Z,98434.50
2023-01-12T21:44:32.226Z,98424.50
2023-01-12T21:46:58.626Z,98419.66
2023-01-12T21:49:25.194Z,98429.19
2023-01-12T21:51:51.631Z,98420.16
2023-01-12T21:54:18.126Z,98415.47
2023-01-12T21:56:44.797Z,98414.50
2023-01-12T21:59:12.243Z,98416.97
2023-01-12T22:01:39.053Z,98417.34
2023-01-12T22:04:05.593Z,98411.81
2023-01-12T22:06:32.167Z,98416.81
2023-01-12T22:08:59.264Z,98414.81
2023-01-12T22:11:25.849Z,98416.00
2023-01-12T22:13:52.313Z,98416.97
2023-01-12T22:16:18.864Z,98415.69
2023-01-12T22:18:49.112Z,98418.88
2023-01-12T22:21:17.037Z,98418.19
2023-01-12T22:23:43.694Z,98416.97
2023-01-12T22:26:12.271Z,98423.19
2023-01-12T22:28:41.354Z,98420.16
2023-01-12T22:31:11.816Z,98420.53
2023-01-12T22:33:39.090Z,98422.34
2023-01-12T22:36:06.991Z,98427.91
2023-01-12T22:38:33.854Z,98424.03
2023-01-12T22:41:08.736Z,98419.84
2023-01-12T22:43:40.514Z,98427.53
2023-01-12T22:46:18.472Z,98420.69
2023-01-12T22:48:48.305Z,98424.88
2023-01-12T22:51:15.000Z,98416.97
2023-01-12T22:53:41.444Z,98421.19
2023-01-12T22:56:09.540Z,98418.88
2023-01-12T22:58:35.967Z,98403.47
2023-01-12T23:01:08.132Z,98411.50
2023-01-12T23:03:36.585Z,98419.22
2023-01-12T23:06:04.459Z,98417.19
2023-01-12T23:08:31.131Z,98419.19
2023-01-12T23:11:13.939Z,98411.81
2023-01-12T23:13:42.093Z,98408.66
2023-01-12T23:16:10.237Z,98406.63
2023-01-12T23:18:39.007Z,98418.88
2023-01-12T23:21:14.063Z,98404.28
2023-01-12T23:23:43.944Z,98414.84
2023-01-12T23:26:13.180Z,98416.69
2023-01-12T23:28:42.917Z,98413.38
2023-01-12T23:31:12.483Z,98412.88
2023-01-12T23:33:40.098Z,98411.34
2023-01-12T23:36:10.182Z,98410.69
2023-01-12T23:38:36.690Z,98408.34
2023-01-12T23:41:13.182Z,98399.47
2023-01-12T23:43:39.752Z,98400.16
2023-01-12T23:46:07.178Z,98401.63
2023-01-12T23:48:34.247Z,98399.47
2023-01-12T23:51:01.447Z,98391.06
2023-01-12T23:53:29.179Z,98396.44
2023-01-12T23:55:56.911Z,98386.91
2023-01-12T23:58:24.819Z,98381.19
